Aérodrome :
LOGIN :

S'inscrire | Disclaimer

   EN    FR    IT 

 










Légende :    VFR   VFR Marginal   IFR   IFR Intensif   IFR Très Intensif
Visi : 
Plafond : 
>= 8 km
>= 3000ft
5 à 8 km
1000 à 3000 ft
1500m à 5 km
500 à 1000 ft
800 à 1500m
200 à 500 ft
< 800m
< 200 ft
Symboles :   Orages  Brouillard  Fortes neiges  Fortes précipitations  Vent > 20 kt
SIGMETs :   Divers  Orages  Givrage  Turbulence  Onde Orograph.  Cendres Volcan.






- Altitude de l'aérodrome : 1496 ft
- Code IATA : SBZ


LRSB - Sibiu

DERNIER METAR :
  • 171500Z 32003KT CAVOK 11/M02 Q1021

METARs EXPIRÉS :
  • 171430Z 35004KT CAVOK 12/M03 Q1021
  • 171400Z 35003KT 320V100 CAVOK 13/M04 Q1022
  • 171330Z VRB02KT CAVOK 13/M06 Q1022
  • 171300Z 34003KT 310V040 CAVOK 13/M06 Q1022
  • 171230Z VRB02KT CAVOK 13/M05 Q1022

TAF TAF LRSB
Valide du 17 à 12h jusqu'au 18 à 12h UTC


171100Z 1712/1812 VRB04KT CAVOK
BECMG 1808/1810 33010KT



MET'MAP, la Météo Aéronautique d'un coup d'oeil ! - Copyright ORBIFLY Décembre 2007 - Disclaimer

ORBIFLY MET'MAP TEAM :

Programmation & Développement : Alexandra Zaïnal
Sur une idée originale de : Baudouin d'Aumeries
Assistance à la programmation : Marc-Olivier Méhu
Soutien technique & logistique : Manuel Goepfert

Contact : metmap@orbifly.com




SOURCES & CREDITS :

   NOAA